sensor_id;sensor_type;location;lat;lon;timestamp;P1;durP1;ratioP1;P2;durP2;ratioP2
51636;SDS011;37713;53.254;6.460;2024-02-14T00:01:08;13.40;;;7.00;;
51636;SDS011;37713;53.254;6.460;2024-02-14T00:03:34;15.82;;;7.35;;
51636;SDS011;37713;53.254;6.460;2024-02-14T00:06:03;13.63;;;7.72;;
51636;SDS011;37713;53.254;6.460;2024-02-14T00:08:29;14.50;;;7.63;;
51636;SDS011;37713;53.254;6.460;2024-02-14T00:10:55;13.95;;;7.65;;
51636;SDS011;37713;53.254;6.460;2024-02-14T00:13:21;15.02;;;7.88;;
51636;SDS011;37713;53.254;6.460;2024-02-14T00:15:46;16.17;;;8.02;;
51636;SDS011;37713;53.254;6.460;2024-02-14T00:18:12;14.55;;;7.55;;
51636;SDS011;37713;53.254;6.460;2024-02-14T00:20:38;15.07;;;8.05;;
51636;SDS011;37713;53.254;6.460;2024-02-14T00:23:04;15.85;;;8.00;;
51636;SDS011;37713;53.254;6.460;2024-02-14T00:25:30;13.43;;;8.38;;
51636;SDS011;37713;53.254;6.460;2024-02-14T00:27:56;16.70;;;8.50;;
51636;SDS011;37713;53.254;6.460;2024-02-14T00:30:22;16.10;;;9.10;;
51636;SDS011;37713;53.254;6.460;2024-02-14T00:32:48;14.65;;;8.85;;
51636;SDS011;37713;53.254;6.460;2024-02-14T00:35:15;14.80;;;8.82;;
51636;SDS011;37713;53.254;6.460;2024-02-14T00:37:40;15.80;;;9.20;;
51636;SDS011;37713;53.254;6.460;2024-02-14T00:40:06;15.15;;;8.82;;
51636;SDS011;37713;53.254;6.460;2024-02-14T00:42:33;16.30;;;9.13;;
51636;SDS011;37713;53.254;6.460;2024-02-14T00:44:59;16.90;;;9.20;;
51636;SDS011;37713;53.254;6.460;2024-02-14T00:47:25;17.15;;;9.82;;
51636;SDS011;37713;53.254;6.460;2024-02-14T00:49:50;14.50;;;9.65;;
51636;SDS011;37713;53.254;6.460;2024-02-14T00:52:17;17.25;;;9.30;;
51636;SDS011;37713;53.254;6.460;2024-02-14T00:54:43;14.75;;;9.55;;
51636;SDS011;37713;53.254;6.460;2024-02-14T00:57:08;15.43;;;9.73;;
51636;SDS011;37713;53.254;6.460;2024-02-14T00:59:34;14.85;;;9.48;;
51636;SDS011;37713;53.254;6.460;2024-02-14T01:02:00;14.93;;;9.27;;
51636;SDS011;37713;53.254;6.460;2024-02-14T01:04:26;16.90;;;9.40;;
51636;SDS011;37713;53.254;6.460;2024-02-14T01:06:51;17.35;;;10.00;;
51636;SDS011;37713;53.254;6.460;2024-02-14T01:09:18;15.10;;;9.82;;
51636;SDS011;37713;53.254;6.460;2024-02-14T01:11:44;15.02;;;10.05;;
51636;SDS011;37713;53.254;6.460;2024-02-14T01:14:10;13.43;;;9.02;;
51636;SDS011;37713;53.254;6.460;2024-02-14T01:16:45;14.68;;;10.57;;
51636;SDS011;37713;53.254;6.460;2024-02-14T01:19:11;15.75;;;10.48;;
51636;SDS011;37713;53.254;6.460;2024-02-14T01:21:38;13.85;;;9.60;;
51636;SDS011;37713;53.254;6.460;2024-02-14T01:24:04;14.27;;;9.20;;
51636;SDS011;37713;53.254;6.460;2024-02-14T01:26:30;13.13;;;9.90;;
51636;SDS011;37713;53.254;6.460;2024-02-14T01:28:57;14.23;;;9.48;;
51636;SDS011;37713;53.254;6.460;2024-02-14T01:31:26;18.27;;;10.30;;
51636;SDS011;37713;53.254;6.460;2024-02-14T01:33:52;12.60;;;9.35;;
51636;SDS011;37713;53.254;6.460;2024-02-14T01:36:18;13.43;;;8.77;;
51636;SDS011;37713;53.254;6.460;2024-02-14T01:38:44;11.95;;;8.65;;
51636;SDS011;37713;53.254;6.460;2024-02-14T01:41:10;12.43;;;9.10;;
51636;SDS011;37713;53.254;6.460;2024-02-14T01:43:36;11.63;;;8.00;;
51636;SDS011;37713;53.254;6.460;2024-02-14T01:46:04;13.52;;;8.43;;
51636;SDS011;37713;53.254;6.460;2024-02-14T01:48:31;13.07;;;8.10;;
51636;SDS011;37713;53.254;6.460;2024-02-14T01:50:57;10.85;;;7.72;;
51636;SDS011;37713;53.254;6.460;2024-02-14T01:53:24;11.07;;;7.65;;
51636;SDS011;37713;53.254;6.460;2024-02-14T01:55:51;12.38;;;7.72;;
51636;SDS011;37713;53.254;6.460;2024-02-14T01:58:17;10.02;;;7.32;;
51636;SDS011;37713;53.254;6.460;2024-02-14T02:00:44;12.05;;;7.50;;
51636;SDS011;37713;53.254;6.460;2024-02-14T02:03:11;11.60;;;7.38;;
51636;SDS011;37713;53.254;6.460;2024-02-14T02:05:38;10.63;;;6.80;;
51636;SDS011;37713;53.254;6.460;2024-02-14T02:08:03;11.07;;;6.63;;
51636;SDS011;37713;53.254;6.460;2024-02-14T02:10:32;9.55;;;6.45;;
51636;SDS011;37713;53.254;6.460;2024-02-14T02:12:58;9.43;;;6.85;;
51636;SDS011;37713;53.254;6.460;2024-02-14T02:15:25;8.88;;;6.05;;
51636;SDS011;37713;53.254;6.460;2024-02-14T02:17:52;8.55;;;6.00;;
51636;SDS011;37713;53.254;6.460;2024-02-14T02:20:18;9.40;;;6.38;;
51636;SDS011;37713;53.254;6.460;2024-02-14T02:22:46;9.82;;;6.35;;
51636;SDS011;37713;53.254;6.460;2024-02-14T02:25:13;8.75;;;6.03;;
51636;SDS011;37713;53.254;6.460;2024-02-14T02:27:39;10.52;;;6.15;;
51636;SDS011;37713;53.254;6.460;2024-02-14T02:30:05;9.85;;;6.35;;
51636;SDS011;37713;53.254;6.460;2024-02-14T02:32:31;8.32;;;5.82;;
51636;SDS011;37713;53.254;6.460;2024-02-14T02:34:57;9.60;;;6.28;;
51636;SDS011;37713;53.254;6.460;2024-02-14T02:37:24;8.73;;;5.68;;
51636;SDS011;37713;53.254;6.460;2024-02-14T02:39:51;9.73;;;5.65;;
51636;SDS011;37713;53.254;6.460;2024-02-14T02:42:17;9.90;;;5.22;;
51636;SDS011;37713;53.254;6.460;2024-02-14T02:44:46;9.02;;;5.97;;
51636;SDS011;37713;53.254;6.460;2024-02-14T02:47:13;9.10;;;5.72;;
51636;SDS011;37713;53.254;6.460;2024-02-14T02:49:42;10.52;;;5.63;;
51636;SDS011;37713;53.254;6.460;2024-02-14T02:52:09;8.02;;;5.63;;
51636;SDS011;37713;53.254;6.460;2024-02-14T02:54:36;9.15;;;5.80;;
51636;SDS011;37713;53.254;6.460;2024-02-14T02:57:07;9.90;;;5.60;;
51636;SDS011;37713;53.254;6.460;2024-02-14T02:59:34;9.75;;;5.88;;
51636;SDS011;37713;53.254;6.460;2024-02-14T03:02:00;9.05;;;5.95;;
51636;SDS011;37713;53.254;6.460;2024-02-14T03:04:27;8.20;;;5.63;;
51636;SDS011;37713;53.254;6.460;2024-02-14T03:06:53;8.68;;;5.88;;
51636;SDS011;37713;53.254;6.460;2024-02-14T03:09:19;9.20;;;5.38;;
51636;SDS011;37713;53.254;6.460;2024-02-14T03:11:46;9.18;;;5.80;;
51636;SDS011;37713;53.254;6.460;2024-02-14T03:14:13;9.15;;;5.78;;
51636;SDS011;37713;53.254;6.460;2024-02-14T03:16:39;8.48;;;5.72;;
51636;SDS011;37713;53.254;6.460;2024-02-14T03:19:05;8.70;;;5.65;;
51636;SDS011;37713;53.254;6.460;2024-02-14T03:21:31;9.05;;;5.40;;
51636;SDS011;37713;53.254;6.460;2024-02-14T03:24:04;8.95;;;5.53;;
51636;SDS011;37713;53.254;6.460;2024-02-14T03:26:30;8.70;;;5.53;;
51636;SDS011;37713;53.254;6.460;2024-02-14T03:29:00;7.95;;;5.32;;
51636;SDS011;37713;53.254;6.460;2024-02-14T03:31:26;9.45;;;5.75;;
51636;SDS011;37713;53.254;6.460;2024-02-14T03:33:52;9.18;;;5.40;;
51636;SDS011;37713;53.254;6.460;2024-02-14T03:36:18;9.02;;;5.90;;
51636;SDS011;37713;53.254;6.460;2024-02-14T03:38:44;8.70;;;5.65;;
51636;SDS011;37713;53.254;6.460;2024-02-14T03:41:11;7.45;;;5.00;;
51636;SDS011;37713;53.254;6.460;2024-02-14T03:43:38;8.77;;;5.60;;
51636;SDS011;37713;53.254;6.460;2024-02-14T03:46:04;8.25;;;5.30;;
51636;SDS011;37713;53.254;6.460;2024-02-14T03:48:30;8.85;;;5.88;;
51636;SDS011;37713;53.254;6.460;2024-02-14T03:50:56;9.30;;;5.55;;
51636;SDS011;37713;53.254;6.460;2024-02-14T03:53:23;8.75;;;5.50;;
51636;SDS011;37713;53.254;6.460;2024-02-14T03:55:48;9.05;;;6.03;;
51636;SDS011;37713;53.254;6.460;2024-02-14T03:58:14;8.35;;;5.53;;
51636;SDS011;37713;53.254;6.460;2024-02-14T04:00:47;10.25;;;5.70;;
51636;SDS011;37713;53.254;6.460;2024-02-14T04:03:15;9.32;;;6.07;;
51636;SDS011;37713;53.254;6.460;2024-02-14T04:05:42;8.35;;;5.68;;
51636;SDS011;37713;53.254;6.460;2024-02-14T04:08:07;8.75;;;5.35;;
51636;SDS011;37713;53.254;6.460;2024-02-14T04:10:38;13.95;;;5.80;;
51636;SDS011;37713;53.254;6.460;2024-02-14T04:13:04;8.50;;;5.35;;
51636;SDS011;37713;53.254;6.460;2024-02-14T04:15:31;10.77;;;5.80;;
51636;SDS011;37713;53.254;6.460;2024-02-14T04:17:57;9.15;;;5.40;;
51636;SDS011;37713;53.254;6.460;2024-02-14T04:20:27;8.73;;;5.60;;
51636;SDS011;37713;53.254;6.460;2024-02-14T04:22:53;9.18;;;6.07;;
51636;SDS011;37713;53.254;6.460;2024-02-14T04:25:19;9.90;;;6.57;;
51636;SDS011;37713;53.254;6.460;2024-02-14T04:27:44;9.60;;;6.18;;
51636;SDS011;37713;53.254;6.460;2024-02-14T04:30:10;9.43;;;6.22;;
51636;SDS011;37713;53.254;6.460;2024-02-14T04:32:36;9.82;;;6.20;;
51636;SDS011;37713;53.254;6.460;2024-02-14T04:35:05;8.80;;;6.07;;
51636;SDS011;37713;53.254;6.460;2024-02-14T04:37:31;9.40;;;5.95;;
51636;SDS011;37713;53.254;6.460;2024-02-14T04:39:58;9.68;;;6.30;;
51636;SDS011;37713;53.254;6.460;2024-02-14T04:42:24;10.10;;;6.72;;
51636;SDS011;37713;53.254;6.460;2024-02-14T04:44:50;10.73;;;6.32;;
51636;SDS011;37713;53.254;6.460;2024-02-14T04:47:16;11.95;;;6.82;;
51636;SDS011;37713;53.254;6.460;2024-02-14T04:49:42;11.90;;;7.07;;
51636;SDS011;37713;53.254;6.460;2024-02-14T04:52:07;11.35;;;7.00;;
51636;SDS011;37713;53.254;6.460;2024-02-14T04:54:33;11.05;;;6.55;;
51636;SDS011;37713;53.254;6.460;2024-02-14T04:56:59;9.15;;;5.82;;
51636;SDS011;37713;53.254;6.460;2024-02-14T04:59:25;11.00;;;6.15;;
51636;SDS011;37713;53.254;6.460;2024-02-14T05:01:50;10.43;;;6.90;;
51636;SDS011;37713;53.254;6.460;2024-02-14T05:04:18;12.32;;;6.32;;
51636;SDS011;37713;53.254;6.460;2024-02-14T05:06:44;11.30;;;6.57;;
51636;SDS011;37713;53.254;6.460;2024-02-14T05:09:10;10.40;;;6.22;;
51636;SDS011;37713;53.254;6.460;2024-02-14T05:11:36;10.80;;;6.43;;
51636;SDS011;37713;53.254;6.460;2024-02-14T05:14:02;12.52;;;6.75;;
51636;SDS011;37713;53.254;6.460;2024-02-14T05:16:28;11.45;;;6.53;;
51636;SDS011;37713;53.254;6.460;2024-02-14T05:18:54;10.18;;;6.47;;
51636;SDS011;37713;53.254;6.460;2024-02-14T05:21:20;11.52;;;6.80;;
51636;SDS011;37713;53.254;6.460;2024-02-14T05:23:47;10.20;;;6.72;;
51636;SDS011;37713;53.254;6.460;2024-02-14T05:26:13;15.43;;;7.78;;
51636;SDS011;37713;53.254;6.460;2024-02-14T05:28:39;13.43;;;7.35;;
51636;SDS011;37713;53.254;6.460;2024-02-14T05:31:05;15.73;;;8.70;;
51636;SDS011;37713;53.254;6.460;2024-02-14T05:33:31;9.48;;;5.53;;
51636;SDS011;37713;53.254;6.460;2024-02-14T05:35:56;10.73;;;5.30;;
51636;SDS011;37713;53.254;6.460;2024-02-14T05:38:22;11.25;;;5.50;;
51636;SDS011;37713;53.254;6.460;2024-02-14T05:40:48;10.32;;;6.00;;
51636;SDS011;37713;53.254;6.460;2024-02-14T05:43:15;12.40;;;5.25;;
51636;SDS011;37713;53.254;6.460;2024-02-14T05:45:43;12.32;;;5.65;;
51636;SDS011;37713;53.254;6.460;2024-02-14T05:48:09;10.55;;;5.00;;
51636;SDS011;37713;53.254;6.460;2024-02-14T05:50:35;11.60;;;4.72;;
51636;SDS011;37713;53.254;6.460;2024-02-14T05:53:01;8.68;;;4.90;;
51636;SDS011;37713;53.254;6.460;2024-02-14T05:55:28;9.85;;;5.03;;
51636;SDS011;37713;53.254;6.460;2024-02-14T05:57:54;9.75;;;4.88;;
51636;SDS011;37713;53.254;6.460;2024-02-14T06:00:20;9.23;;;4.82;;
51636;SDS011;37713;53.254;6.460;2024-02-14T06:02:49;9.60;;;4.82;;
51636;SDS011;37713;53.254;6.460;2024-02-14T06:05:15;12.68;;;7.10;;
51636;SDS011;37713;53.254;6.460;2024-02-14T06:07:41;13.65;;;5.82;;
51636;SDS011;37713;53.254;6.460;2024-02-14T06:10:10;11.18;;;4.65;;
51636;SDS011;37713;53.254;6.460;2024-02-14T06:12:36;11.32;;;4.32;;
51636;SDS011;37713;53.254;6.460;2024-02-14T06:15:02;10.43;;;4.60;;
51636;SDS011;37713;53.254;6.460;2024-02-14T06:17:28;10.70;;;4.53;;
51636;SDS011;37713;53.254;6.460;2024-02-14T06:19:54;12.13;;;4.85;;
51636;SDS011;37713;53.254;6.460;2024-02-14T06:22:20;12.93;;;4.72;;
51636;SDS011;37713;53.254;6.460;2024-02-14T06:24:46;11.88;;;4.55;;
51636;SDS011;37713;53.254;6.460;2024-02-14T06:27:13;13.63;;;4.93;;
51636;SDS011;37713;53.254;6.460;2024-02-14T06:29:43;13.65;;;5.22;;
51636;SDS011;37713;53.254;6.460;2024-02-14T06:32:08;24.30;;;5.22;;
51636;SDS011;37713;53.254;6.460;2024-02-14T06:34:36;13.65;;;5.30;;
51636;SDS011;37713;53.254;6.460;2024-02-14T06:37:02;25.25;;;6.82;;
51636;SDS011;37713;53.254;6.460;2024-02-14T06:39:29;25.08;;;6.40;;
51636;SDS011;37713;53.254;6.460;2024-02-14T06:41:55;30.77;;;7.35;;
51636;SDS011;37713;53.254;6.460;2024-02-14T06:44:22;32.03;;;7.32;;
51636;SDS011;37713;53.254;6.460;2024-02-14T06:46:49;32.70;;;7.55;;
51636;SDS011;37713;53.254;6.460;2024-02-14T06:49:18;34.25;;;7.90;;
51636;SDS011;37713;53.254;6.460;2024-02-14T06:51:44;39.13;;;7.53;;
51636;SDS011;37713;53.254;6.460;2024-02-14T06:54:10;37.22;;;8.07;;
51636;SDS011;37713;53.254;6.460;2024-02-14T06:56:38;42.78;;;8.48;;
51636;SDS011;37713;53.254;6.460;2024-02-14T06:59:04;37.30;;;7.63;;
51636;SDS011;37713;53.254;6.460;2024-02-14T07:01:30;42.13;;;8.32;;
51636;SDS011;37713;53.254;6.460;2024-02-14T07:03:56;42.88;;;8.00;;
51636;SDS011;37713;53.254;6.460;2024-02-14T07:06:22;37.03;;;8.55;;
51636;SDS011;37713;53.254;6.460;2024-02-14T07:08:48;46.40;;;8.52;;
51636;SDS011;37713;53.254;6.460;2024-02-14T07:11:14;59.47;;;9.15;;
51636;SDS011;37713;53.254;6.460;2024-02-14T07:13:43;41.70;;;8.18;;
51636;SDS011;37713;53.254;6.460;2024-02-14T07:16:09;50.45;;;8.25;;
51636;SDS011;37713;53.254;6.460;2024-02-14T07:18:35;42.45;;;8.18;;
51636;SDS011;37713;53.254;6.460;2024-02-14T07:21:01;55.90;;;8.80;;
51636;SDS011;37713;53.254;6.460;2024-02-14T07:23:27;44.10;;;7.90;;
51636;SDS011;37713;53.254;6.460;2024-02-14T07:25:53;52.28;;;8.65;;
51636;SDS011;37713;53.254;6.460;2024-02-14T07:28:19;47.20;;;7.78;;
51636;SDS011;37713;53.254;6.460;2024-02-14T07:30:44;51.28;;;8.35;;
51636;SDS011;37713;53.254;6.460;2024-02-14T07:33:10;42.22;;;7.97;;
51636;SDS011;37713;53.254;6.460;2024-02-14T07:35:36;39.70;;;7.95;;
51636;SDS011;37713;53.254;6.460;2024-02-14T07:38:03;50.67;;;7.80;;
51636;SDS011;37713;53.254;6.460;2024-02-14T07:40:29;49.35;;;7.95;;
51636;SDS011;37713;53.254;6.460;2024-02-14T07:42:56;55.78;;;8.27;;
51636;SDS011;37713;53.254;6.460;2024-02-14T07:45:22;47.75;;;7.43;;
51636;SDS011;37713;53.254;6.460;2024-02-14T07:47:49;46.30;;;8.75;;
51636;SDS011;37713;53.254;6.460;2024-02-14T07:50:15;51.47;;;7.60;;
51636;SDS011;37713;53.254;6.460;2024-02-14T07:52:42;54.65;;;7.25;;
51636;SDS011;37713;53.254;6.460;2024-02-14T07:55:09;53.25;;;8.52;;
51636;SDS011;37713;53.254;6.460;2024-02-14T07:57:41;51.40;;;7.63;;
51636;SDS011;37713;53.254;6.460;2024-02-14T08:00:07;50.92;;;7.43;;
51636;SDS011;37713;53.254;6.460;2024-02-14T08:02:35;61.75;;;8.20;;
51636;SDS011;37713;53.254;6.460;2024-02-14T08:05:01;45.45;;;8.30;;
51636;SDS011;37713;53.254;6.460;2024-02-14T08:07:27;54.97;;;7.55;;
51636;SDS011;37713;53.254;6.460;2024-02-14T08:09:54;43.83;;;7.78;;
51636;SDS011;37713;53.254;6.460;2024-02-14T08:12:20;55.00;;;7.80;;
51636;SDS011;37713;53.254;6.460;2024-02-14T08:14:47;58.85;;;8.30;;
51636;SDS011;37713;53.254;6.460;2024-02-14T08:17:12;61.80;;;8.48;;
51636;SDS011;37713;53.254;6.460;2024-02-14T08:19:38;45.47;;;7.90;;
51636;SDS011;37713;53.254;6.460;2024-02-14T08:22:04;53.92;;;8.10;;
51636;SDS011;37713;53.254;6.460;2024-02-14T08:24:31;42.63;;;7.57;;
51636;SDS011;37713;53.254;6.460;2024-02-14T08:26:56;46.45;;;7.43;;
51636;SDS011;37713;53.254;6.460;2024-02-14T08:29:23;54.30;;;7.93;;
51636;SDS011;37713;53.254;6.460;2024-02-14T08:31:48;47.28;;;8.23;;
51636;SDS011;37713;53.254;6.460;2024-02-14T08:34:15;53.78;;;8.73;;
51636;SDS011;37713;53.254;6.460;2024-02-14T08:36:44;46.42;;;8.75;;
51636;SDS011;37713;53.254;6.460;2024-02-14T08:39:10;43.13;;;8.45;;
51636;SDS011;37713;53.254;6.460;2024-02-14T08:41:36;37.25;;;7.35;;
51636;SDS011;37713;53.254;6.460;2024-02-14T08:44:03;43.13;;;8.57;;
51636;SDS011;37713;53.254;6.460;2024-02-14T08:46:30;46.13;;;7.68;;
51636;SDS011;37713;53.254;6.460;2024-02-14T08:48:56;42.97;;;7.75;;
51636;SDS011;37713;53.254;6.460;2024-02-14T08:51:22;38.10;;;8.35;;
51636;SDS011;37713;53.254;6.460;2024-02-14T08:53:48;43.58;;;7.63;;
51636;SDS011;37713;53.254;6.460;2024-02-14T08:56:20;37.88;;;7.65;;
51636;SDS011;37713;53.254;6.460;2024-02-14T08:58:47;40.47;;;7.57;;
51636;SDS011;37713;53.254;6.460;2024-02-14T09:01:14;45.13;;;7.93;;
51636;SDS011;37713;53.254;6.460;2024-02-14T09:03:41;32.80;;;7.68;;
51636;SDS011;37713;53.254;6.460;2024-02-14T09:06:12;34.35;;;7.20;;
51636;SDS011;37713;53.254;6.460;2024-02-14T09:08:39;31.52;;;7.43;;
51636;SDS011;37713;53.254;6.460;2024-02-14T09:11:06;34.85;;;7.57;;
51636;SDS011;37713;53.254;6.460;2024-02-14T09:13:31;29.80;;;7.90;;
51636;SDS011;37713;53.254;6.460;2024-02-14T09:15:57;37.22;;;8.50;;
51636;SDS011;37713;53.254;6.460;2024-02-14T09:18:24;34.55;;;8.85;;
51636;SDS011;37713;53.254;6.460;2024-02-14T09:20:50;35.63;;;9.88;;
51636;SDS011;37713;53.254;6.460;2024-02-14T09:23:16;40.70;;;9.45;;
51636;SDS011;37713;53.254;6.460;2024-02-14T09:25:49;39.08;;;10.07;;
51636;SDS011;37713;53.254;6.460;2024-02-14T09:28:15;42.70;;;10.45;;
51636;SDS011;37713;53.254;6.460;2024-02-14T09:30:41;37.55;;;10.80;;
51636;SDS011;37713;53.254;6.460;2024-02-14T09:33:07;39.08;;;11.32;;
51636;SDS011;37713;53.254;6.460;2024-02-14T09:35:33;41.55;;;10.80;;
51636;SDS011;37713;53.254;6.460;2024-02-14T09:38:00;34.63;;;10.98;;
51636;SDS011;37713;53.254;6.460;2024-02-14T09:40:26;36.50;;;10.43;;
51636;SDS011;37713;53.254;6.460;2024-02-14T09:42:56;37.08;;;10.73;;
51636;SDS011;37713;53.254;6.460;2024-02-14T09:45:24;32.40;;;9.90;;
51636;SDS011;37713;53.254;6.460;2024-02-14T09:47:51;35.17;;;10.80;;
51636;SDS011;37713;53.254;6.460;2024-02-14T09:50:19;35.85;;;10.02;;
51636;SDS011;37713;53.254;6.460;2024-02-14T09:52:47;34.45;;;10.05;;
51636;SDS011;37713;53.254;6.460;2024-02-14T09:55:16;32.80;;;9.73;;
51636;SDS011;37713;53.254;6.460;2024-02-14T09:57:42;31.67;;;9.60;;
51636;SDS011;37713;53.254;6.460;2024-02-14T10:00:09;27.63;;;10.02;;
51636;SDS011;37713;53.254;6.460;2024-02-14T10:02:36;32.80;;;11.15;;
51636;SDS011;37713;53.254;6.460;2024-02-14T10:05:03;37.63;;;11.48;;
51636;SDS011;37713;53.254;6.460;2024-02-14T10:07:29;37.90;;;11.77;;
51636;SDS011;37713;53.254;6.460;2024-02-14T10:10:05;34.22;;;11.50;;
51636;SDS011;37713;53.254;6.460;2024-02-14T10:12:32;37.58;;;12.02;;
51636;SDS011;37713;53.254;6.460;2024-02-14T10:14:58;34.25;;;12.77;;
51636;SDS011;37713;53.254;6.460;2024-02-14T10:17:24;29.83;;;11.85;;
51636;SDS011;37713;53.254;6.460;2024-02-14T10:19:57;34.60;;;11.63;;
51636;SDS011;37713;53.254;6.460;2024-02-14T10:22:24;37.97;;;12.10;;
51636;SDS011;37713;53.254;6.460;2024-02-14T10:24:57;29.55;;;11.27;;
51636;SDS011;37713;53.254;6.460;2024-02-14T10:27:23;35.53;;;11.15;;
51636;SDS011;37713;53.254;6.460;2024-02-14T10:29:50;30.45;;;10.73;;
51636;SDS011;37713;53.254;6.460;2024-02-14T10:32:16;24.25;;;9.70;;
51636;SDS011;37713;53.254;6.460;2024-02-14T10:34:43;24.58;;;8.90;;
51636;SDS011;37713;53.254;6.460;2024-02-14T10:37:13;23.48;;;9.35;;
51636;SDS011;37713;53.254;6.460;2024-02-14T10:39:40;23.50;;;8.82;;
51636;SDS011;37713;53.254;6.460;2024-02-14T10:42:07;24.42;;;8.85;;
51636;SDS011;37713;53.254;6.460;2024-02-14T10:44:34;24.08;;;9.88;;
51636;SDS011;37713;53.254;6.460;2024-02-14T10:47:00;24.10;;;9.98;;
51636;SDS011;37713;53.254;6.460;2024-02-14T10:49:28;25.73;;;10.18;;
51636;SDS011;37713;53.254;6.460;2024-02-14T10:51:55;26.85;;;10.77;;
51636;SDS011;37713;53.254;6.460;2024-02-14T10:54:25;20.08;;;9.38;;
51636;SDS011;37713;53.254;6.460;2024-02-14T10:56:52;23.58;;;9.32;;
51636;SDS011;37713;53.254;6.460;2024-02-14T10:59:23;17.60;;;9.02;;
51636;SDS011;37713;53.254;6.460;2024-02-14T11:01:51;21.25;;;8.25;;
51636;SDS011;37713;53.254;6.460;2024-02-14T11:04:17;17.02;;;7.40;;
51636;SDS011;37713;53.254;6.460;2024-02-14T11:06:47;11.60;;;6.40;;
51636;SDS011;37713;53.254;6.460;2024-02-14T11:09:14;15.18;;;6.32;;
51636;SDS011;37713;53.254;6.460;2024-02-14T11:11:41;15.38;;;6.57;;
51636;SDS011;37713;53.254;6.460;2024-02-14T11:14:09;15.57;;;6.70;;
51636;SDS011;37713;53.254;6.460;2024-02-14T11:16:36;14.02;;;6.82;;
51636;SDS011;37713;53.254;6.460;2024-02-14T11:19:09;17.98;;;8.00;;
51636;SDS011;37713;53.254;6.460;2024-02-14T11:21:43;16.75;;;7.57;;
51636;SDS011;37713;53.254;6.460;2024-02-14T11:24:12;15.38;;;7.70;;
51636;SDS011;37713;53.254;6.460;2024-02-14T11:29:14;18.25;;;6.82;;
51636;SDS011;37713;53.254;6.460;2024-02-14T11:31:44;19.60;;;7.97;;
51636;SDS011;37713;53.254;6.460;2024-02-14T11:34:14;15.32;;;8.35;;
51636;SDS011;37713;53.254;6.460;2024-02-14T11:36:43;15.65;;;7.63;;
51636;SDS011;37713;53.254;6.460;2024-02-14T11:39:13;18.02;;;7.45;;
51636;SDS011;37713;53.254;6.460;2024-02-14T11:41:39;16.45;;;6.88;;
51636;SDS011;37713;53.254;6.460;2024-02-14T11:44:07;18.45;;;7.47;;
51636;SDS011;37713;53.254;6.460;2024-02-14T11:46:34;15.13;;;6.65;;
51636;SDS011;37713;53.254;6.460;2024-02-14T11:49:01;13.93;;;6.57;;
51636;SDS011;37713;53.254;6.460;2024-02-14T11:51:33;12.10;;;6.82;;
51636;SDS011;37713;53.254;6.460;2024-02-14T11:54:03;14.40;;;6.47;;
51636;SDS011;37713;53.254;6.460;2024-02-14T11:56:31;11.82;;;5.80;;
51636;SDS011;37713;53.254;6.460;2024-02-14T11:59:07;13.73;;;5.80;;
51636;SDS011;37713;53.254;6.460;2024-02-14T12:01:36;12.52;;;5.63;;
51636;SDS011;37713;53.254;6.460;2024-02-14T12:04:04;9.27;;;4.80;;
51636;SDS011;37713;53.254;6.460;2024-02-14T12:06:33;9.48;;;4.97;;
51636;SDS011;37713;53.254;6.460;2024-02-14T12:09:03;11.30;;;4.75;;
51636;SDS011;37713;53.254;6.460;2024-02-14T12:11:33;8.05;;;4.10;;
51636;SDS011;37713;53.254;6.460;2024-02-14T12:14:07;6.82;;;3.58;;
51636;SDS011;37713;53.254;6.460;2024-02-14T12:16:34;8.00;;;3.50;;
51636;SDS011;37713;53.254;6.460;2024-02-14T12:19:05;7.40;;;3.40;;
51636;SDS011;37713;53.254;6.460;2024-02-14T12:21:40;7.60;;;3.53;;
51636;SDS011;37713;53.254;6.460;2024-02-14T12:24:10;6.85;;;3.15;;
51636;SDS011;37713;53.254;6.460;2024-02-14T12:26:38;8.63;;;3.42;;
51636;SDS011;37713;53.254;6.460;2024-02-14T12:29:04;7.47;;;3.63;;
51636;SDS011;37713;53.254;6.460;2024-02-14T12:31:31;6.25;;;3.55;;
51636;SDS011;37713;53.254;6.460;2024-02-14T12:33:57;7.20;;;3.15;;
51636;SDS011;37713;53.254;6.460;2024-02-14T12:36:28;9.55;;;3.72;;
51636;SDS011;37713;53.254;6.460;2024-02-14T12:38:57;6.70;;;3.90;;
51636;SDS011;37713;53.254;6.460;2024-02-14T12:41:23;9.30;;;4.38;;
51636;SDS011;37713;53.254;6.460;2024-02-14T12:43:51;9.75;;;4.43;;
51636;SDS011;37713;53.254;6.460;2024-02-14T12:46:17;10.30;;;5.03;;
51636;SDS011;37713;53.254;6.460;2024-02-14T12:48:43;8.18;;;4.80;;
51636;SDS011;37713;53.254;6.460;2024-02-14T12:51:10;10.07;;;5.15;;
51636;SDS011;37713;53.254;6.460;2024-02-14T12:53:35;10.10;;;4.72;;
51636;SDS011;37713;53.254;6.460;2024-02-14T12:56:01;10.40;;;5.18;;
51636;SDS011;37713;53.254;6.460;2024-02-14T12:58:30;10.68;;;4.72;;
51636;SDS011;37713;53.254;6.460;2024-02-14T13:00:56;10.05;;;5.20;;
51636;SDS011;37713;53.254;6.460;2024-02-14T13:03:24;8.90;;;4.53;;
51636;SDS011;37713;53.254;6.460;2024-02-14T13:05:50;8.23;;;4.38;;
51636;SDS011;37713;53.254;6.460;2024-02-14T13:08:18;9.10;;;4.32;;
51636;SDS011;37713;53.254;6.460;2024-02-14T13:10:44;7.53;;;4.32;;
51636;SDS011;37713;53.254;6.460;2024-02-14T13:13:10;7.18;;;4.35;;
51636;SDS011;37713;53.254;6.460;2024-02-14T13:15:36;8.48;;;4.13;;
51636;SDS011;37713;53.254;6.460;2024-02-14T13:18:03;7.15;;;3.80;;
51636;SDS011;37713;53.254;6.460;2024-02-14T13:20:29;8.60;;;3.80;;
51636;SDS011;37713;53.254;6.460;2024-02-14T13:22:55;7.03;;;4.05;;
51636;SDS011;37713;53.254;6.460;2024-02-14T13:25:21;7.25;;;4.13;;
51636;SDS011;37713;53.254;6.460;2024-02-14T13:27:47;5.90;;;3.78;;
51636;SDS011;37713;53.254;6.460;2024-02-14T13:30:16;7.60;;;3.78;;
51636;SDS011;37713;53.254;6.460;2024-02-14T13:32:43;6.97;;;4.15;;
51636;SDS011;37713;53.254;6.460;2024-02-14T13:35:09;6.97;;;4.38;;
51636;SDS011;37713;53.254;6.460;2024-02-14T13:37:38;7.72;;;4.18;;
51636;SDS011;37713;53.254;6.460;2024-02-14T13:40:04;6.13;;;4.25;;
51636;SDS011;37713;53.254;6.460;2024-02-14T13:42:35;8.45;;;4.28;;
51636;SDS011;37713;53.254;6.460;2024-02-14T13:45:03;6.93;;;4.72;;
51636;SDS011;37713;53.254;6.460;2024-02-14T13:47:39;8.85;;;4.90;;
51636;SDS011;37713;53.254;6.460;2024-02-14T13:50:07;10.30;;;4.80;;
51636;SDS011;37713;53.254;6.460;2024-02-14T13:52:34;9.25;;;5.00;;
51636;SDS011;37713;53.254;6.460;2024-02-14T13:55:03;9.20;;;5.00;;
51636;SDS011;37713;53.254;6.460;2024-02-14T14:00:01;9.63;;;4.80;;
51636;SDS011;37713;53.254;6.460;2024-02-14T14:02:27;8.20;;;5.22;;
51636;SDS011;37713;53.254;6.460;2024-02-14T14:04:53;8.68;;;5.25;;
51636;SDS011;37713;53.254;6.460;2024-02-14T14:07:20;9.48;;;5.40;;
51636;SDS011;37713;53.254;6.460;2024-02-14T14:09:47;10.00;;;6.45;;
51636;SDS011;37713;53.254;6.460;2024-02-14T14:12:13;13.40;;;7.65;;
51636;SDS011;37713;53.254;6.460;2024-02-14T14:14:46;12.52;;;7.05;;
51636;SDS011;37713;53.254;6.460;2024-02-14T14:17:13;12.82;;;8.13;;
51636;SDS011;37713;53.254;6.460;2024-02-14T14:19:39;14.23;;;7.55;;
51636;SDS011;37713;53.254;6.460;2024-02-14T14:22:05;13.57;;;8.45;;
51636;SDS011;37713;53.254;6.460;2024-02-14T14:24:31;12.35;;;8.10;;
51636;SDS011;37713;53.254;6.460;2024-02-14T14:26:57;12.57;;;7.80;;
51636;SDS011;37713;53.254;6.460;2024-02-14T14:29:23;11.27;;;7.07;;
51636;SDS011;37713;53.254;6.460;2024-02-14T14:31:48;9.55;;;6.93;;
51636;SDS011;37713;53.254;6.460;2024-02-14T14:34:14;11.68;;;7.28;;
51636;SDS011;37713;53.254;6.460;2024-02-14T14:36:40;10.27;;;7.47;;
51636;SDS011;37713;53.254;6.460;2024-02-14T14:39:06;10.73;;;7.13;;
51636;SDS011;37713;53.254;6.460;2024-02-14T14:41:36;10.60;;;7.70;;